Time;durP1;ratioP1;P1;durP2;ratioP2;P2;SDS_P1;SDS_P2;PMS_P1;PMS_P2;Temp;Humidity;BMP_temperature;BMP_pressure;BME280_temperature;BME280_humidity;BME280_pressure;Samples;Min_cycle;Max_cycle;Signal;HPM_P1;HPM_P2
2021/05/10 00:01:37;;;;;;;11.98;10.40;;;17.70;99.90;;;18.16;90.07;99780.22;4827971;29;20061;-64
2021/05/10 00:04:05;;;;;;;12.05;10.02;;;17.80;99.90;;;18.20;89.46;99768.41;4844536;29;20133;-64
2021/05/10 00:06:34;;;;;;;11.55;9.73;;;17.90;99.90;;;18.24;89.38;99753.94;4827938;29;20058;-64
2021/05/10 00:09:04;;;;;;;11.88;10.25;;;18.00;99.90;;;18.44;88.84;99761.81;4827884;29;20053;-65
2021/05/10 00:11:35;;;;;;;13.45;9.98;;;18.10;99.90;;;18.49;88.29;99781.16;4844160;29;20050;-64
2021/05/10 00:14:03;;;;;;;11.15;8.80;;;18.20;99.90;;;18.43;88.06;99773.44;4827586;29;20050;-64
2021/05/10 00:16:32;;;;;;;11.25;10.00;;;18.20;99.90;;;18.50;87.87;99772.19;4844142;29;20054;-65
2021/05/10 00:19:00;;;;;;;15.57;10.10;;;18.20;99.90;;;18.52;87.67;99764.06;4844542;29;20054;-65
2021/05/10 00:21:27;;;;;;;13.45;9.57;;;18.30;99.90;;;18.64;87.17;99760.72;4844101;29;20088;-64
2021/05/10 00:23:56;;;;;;;16.00;10.75;;;18.40;99.90;;;18.68;86.80;99755.09;4844026;29;20511;-64
2021/05/10 00:26:23;;;;;;;15.63;9.48;;;18.50;99.90;;;18.65;86.30;99755.28;4844002;29;20121;-64
2021/05/10 00:28:51;;;;;;;13.30;8.82;;;18.50;99.90;;;18.64;85.90;99752.69;4843877;29;20050;-64
2021/05/10 00:31:18;;;;;;;14.02;9.00;;;18.50;99.90;;;18.57;85.87;99737.88;4827498;29;20504;-64
2021/05/10 00:33:46;;;;;;;12.88;8.43;;;18.40;99.90;;;18.57;85.49;99735.19;4844011;29;20049;-64
2021/05/10 00:36:13;;;;;;;11.25;9.10;;;18.30;99.90;;;18.52;85.66;99729.25;4843879;29;20050;-64
2021/05/10 00:38:40;;;;;;;10.18;8.55;;;18.20;99.90;;;18.59;85.47;99730.63;4843947;29;20072;-64
2021/05/10 00:41:09;;;;;;;11.85;8.40;;;18.30;99.90;;;18.60;84.98;99725.16;4843663;29;20054;-64
2021/05/10 00:43:36;;;;;;;10.75;7.70;;;18.30;99.90;;;18.57;84.24;99728.03;4843906;29;20050;-64
2021/05/10 00:46:03;;;;;;;11.48;7.63;;;18.30;99.90;;;18.61;84.45;99721.56;4843787;29;20133;-64
2021/05/10 00:48:31;;;;;;;12.52;8.25;;;18.30;99.90;;;18.57;83.79;99714.66;4843597;29;20046;-64
2021/05/10 00:50:58;;;;;;;9.18;7.75;;;18.30;99.90;;;18.35;84.15;99713.22;4843560;29;20077;-64
2021/05/10 00:53:26;;;;;;;11.75;7.70;;;18.20;99.90;;;18.39;84.22;99722.81;4843490;29;20405;-64
2021/05/10 00:55:54;;;;;;;9.60;7.78;;;18.10;99.90;;;18.33;84.53;99715.94;4842722;29;20050;-64
2021/05/10 00:58:24;;;;;;;8.90;7.50;;;18.00;99.90;;;18.33;84.09;99723.97;4843539;29;20145;-64
2021/05/10 01:00:51;;;;;;;9.82;7.40;;;18.00;99.90;;;18.42;83.59;99719.94;4843403;29;20461;-64
2021/05/10 01:03:19;;;;;;;10.73;6.80;;;18.10;99.90;;;18.36;83.74;99723.81;4826823;29;20050;-64
2021/05/10 01:05:47;;;;;;;8.45;7.10;;;18.10;99.90;;;18.06;84.57;99706.72;4843271;29;20122;-64
2021/05/10 01:08:14;;;;;;;10.25;7.10;;;17.90;99.90;;;18.14;84.78;99727.75;4826782;29;20060;-64
2021/05/10 01:10:42;;;;;;;8.68;7.20;;;17.90;99.90;;;18.13;84.93;99707.28;4843117;29;20058;-64
2021/05/10 01:13:09;;;;;;;9.77;7.88;;;17.90;99.90;;;18.18;84.67;99715.91;4843347;29;20062;-64
2021/05/10 01:15:40;;;;;;;9.90;8.00;;;17.90;99.90;;;18.20;84.76;99705.97;4843246;29;20080;-64
2021/05/10 01:18:08;;;;;;;12.05;8.32;;;17.90;99.90;;;18.21;84.86;99710.41;4826796;29;20061;-64
2021/05/10 01:20:36;;;;;;;12.18;8.00;;;18.00;99.90;;;18.24;84.92;99711.09;4843034;29;20407;-64
2021/05/10 01:23:05;;;;;;;9.98;8.15;;;18.00;99.90;;;18.21;84.96;99703.25;4842917;29;20067;-64
2021/05/10 01:25:33;;;;;;;10.25;7.97;;;18.00;99.90;;;17.97;85.82;99686.69;4826721;29;20074;-65
2021/05/10 01:28:01;;;;;;;13.02;8.90;;;17.80;99.90;;;18.01;86.42;99690.06;4842738;29;20053;-64
2021/05/10 01:30:32;;;;;;;11.32;8.98;;;17.80;99.90;;;18.00;86.63;99691.03;4842839;29;20050;-64
2021/05/10 01:33:02;;;;;;;10.10;9.07;;;17.70;99.90;;;18.08;86.27;99698.63;4842733;29;20074;-64
2021/05/10 01:35:32;;;;;;;13.52;9.55;;;17.80;99.90;;;17.98;86.35;99692.91;4842820;29;20058;-64
2021/05/10 01:38:00;;;;;;;10.05;8.57;;;17.70;99.90;;;17.95;86.31;99690.38;4842869;29;20054;-64
2021/05/10 01:40:29;;;;;;;11.10;8.27;;;17.80;99.90;;;17.92;86.53;99677.19;4842761;29;20102;-64
2021/05/10 01:42:58;;;;;;;10.52;8.38;;;17.70;99.90;;;17.95;86.08;99677.00;4842759;29;20054;-64
2021/05/10 01:45:25;;;;;;;10.55;8.15;;;17.70;99.90;;;18.00;85.97;99664.25;4842696;29;20105;-64
2021/05/10 01:48:00;;;;;;;10.50;8.43;;;17.70;99.90;;;17.90;86.29;99668.38;4842521;29;20049;-64
2021/05/10 01:50:28;;;;;;;9.75;7.82;;;17.60;99.90;;;17.73;86.63;99655.88;4842723;29;20050;-64
2021/05/10 01:52:55;;;;;;;10.65;8.90;;;17.50;99.90;;;17.71;87.17;99654.25;4842700;29;20075;-64
2021/05/10 01:55:24;;;;;;;15.45;8.70;;;17.40;99.90;;;17.59;87.80;99650.41;4842498;29;20054;-64
2021/05/10 01:57:55;;;;;;;13.45;8.50;;;17.30;99.90;;;17.38;87.90;99606.03;4842393;29;20405;-64
2021/05/10 02:00:30;;;;;;;11.85;8.32;;;17.30;99.90;;;17.50;88.31;99628.66;4842314;29;20064;-64
2021/05/10 02:03:00;;;;;;;14.43;8.85;;;17.20;99.90;;;17.53;88.03;99632.00;4842562;29;20054;-64
2021/05/10 02:05:29;;;;;;;12.25;9.00;;;17.30;99.90;;;17.48;88.54;99627.81;4842267;29;20067;-65
2021/05/10 02:07:59;;;;;;;12.45;8.75;;;17.20;99.90;;;17.39;88.50;99607.75;4842344;29;20160;-64
2021/05/10 02:10:30;;;;;;;12.15;8.43;;;17.20;99.90;;;17.46;88.62;99627.03;4842388;29;20096;-64
2021/05/10 02:13:01;;;;;;;9.70;8.38;;;17.20;99.90;;;17.43;88.69;99625.38;4842195;29;20054;-64
2021/05/10 02:15:31;;;;;;;12.45;8.85;;;17.20;99.90;;;17.35;88.74;99594.63;4842432;29;20050;-64
2021/05/10 02:17:58;;;;;;;9.25;8.23;;;17.20;99.90;;;17.39;88.92;99633.63;4842050;29;20176;-64
2021/05/10 02:20:27;;;;;;;11.50;8.27;;;17.10;99.90;;;17.39;89.12;99596.19;4842235;29;20054;-64
2021/05/10 02:22:57;;;;;;;9.95;7.57;;;17.10;99.90;;;17.35;89.25;99597.31;4842045;29;20416;-64
2021/05/10 02:25:27;;;;;;;10.77;8.02;;;17.10;99.90;;;17.32;89.35;99592.13;4842146;29;20049;-65
2021/05/10 02:27:55;;;;;;;12.90;8.65;;;17.00;99.90;;;17.36;88.91;99591.03;4842056;29;20083;-64
2021/05/10 02:30:27;;;;;;;12.93;8.88;;;17.10;99.90;;;17.39;88.53;99582.84;4842047;29;20462;-64
2021/05/10 02:32:57;;;;;;;11.85;8.30;;;17.10;99.90;;;17.51;87.78;99590.25;4842075;29;20129;-64
2021/05/10 02:35:24;;;;;;;10.77;8.27;;;17.20;99.90;;;17.61;87.15;99597.72;4841916;29;20045;-64
2021/05/10 02:37:53;;;;;;;13.45;9.02;;;17.30;99.90;;;17.59;86.70;99610.31;4841815;29;20107;-64
2021/05/10 02:40:20;;;;;;;11.32;8.07;;;17.30;99.90;;;17.68;86.36;99596.44;4825545;29;20428;-64
2021/05/10 02:42:48;;;;;;;10.82;7.60;;;17.30;99.90;;;17.60;86.18;99589.75;4842100;29;20050;-64
2021/05/10 02:45:18;;;;;;;10.25;8.15;;;17.30;99.90;;;17.77;85.52;99593.25;4841948;29;20050;-64
2021/05/10 02:47:47;;;;;;;9.75;7.55;;;17.40;99.90;;;17.87;85.00;99591.81;4841851;29;20153;-65
2021/05/10 02:50:18;;;;;;;12.40;8.25;;;17.50;99.90;;;17.87;84.34;99588.25;4842162;29;20697;-64
2021/05/10 02:52:45;;;;;;;;;;;17.60;99.90;;;17.87;83.75;99573.09;4826049;29;20050;-65
2021/05/10 02:55:13;;;;;;;11.23;7.57;;;17.70;99.90;;;18.11;83.24;99594.97;4841922;29;19972;-65
2021/05/10 02:57:42;;;;;;;9.98;6.97;;;17.80;99.90;;;18.13;82.54;99590.38;4841937;29;20137;-65
2021/05/10 03:00:12;;;;;;;7.05;6.35;;;17.90;99.90;;;18.12;82.21;99594.00;4841723;29;20501;-64
2021/05/10 03:02:40;;;;;;;13.50;7.13;;;17.90;99.90;;;18.09;82.05;99582.59;4841717;29;20058;-64
2021/05/10 03:05:11;;;;;;;9.13;6.60;;;18.00;99.90;;;18.23;81.97;99601.44;4825357;29;20050;-64
2021/05/10 03:07:39;;;;;;;7.90;6.50;;;18.00;99.90;;;18.04;81.76;99564.09;4841767;29;20058;-64
2021/05/10 03:10:10;;;;;;;10.25;6.30;;;18.00;99.90;;;18.20;81.16;99582.84;4841849;29;20081;-64
2021/05/10 03:12:37;;;;;;;7.88;6.20;;;18.00;99.90;;;18.23;81.07;99574.66;4841780;29;20064;-64
2021/05/10 03:15:08;;;;;;;10.75;6.57;;;18.10;99.90;;;18.22;81.19;99578.28;4841696;29;20059;-64
2021/05/10 03:17:36;;;;;;;6.70;6.10;;;18.00;99.90;;;18.03;81.13;99573.97;4841591;29;20058;-64
2021/05/10 03:20:05;;;;;;;10.48;6.45;;;17.80;99.90;;;18.11;80.56;99570.88;4844193;29;20046;-65
2021/05/10 03:22:33;;;;;;;8.23;6.65;;;17.90;99.90;;;18.18;79.72;99561.53;4845312;29;20064;-64
2021/05/10 03:25:00;;;;;;;9.02;6.72;;;17.90;99.90;;;18.22;79.19;99555.06;4845158;29;20073;-64
2021/05/10 03:27:29;;;;;;;10.52;6.70;;;18.00;99.90;;;18.28;78.83;99552.03;4845084;29;20148;-64
2021/05/10 03:29:57;;;;;;;10.10;6.78;;;18.10;99.90;;;18.35;78.80;99550.72;4844958;29;20420;-64
2021/05/10 03:32:25;;;;;;;10.15;7.05;;;18.10;99.90;;;18.36;78.88;99549.78;4844801;29;20050;-64
2021/05/10 03:34:53;;;;;;;8.70;6.32;;;18.10;99.90;;;18.22;78.73;99519.38;4845057;29;20388;-65
2021/05/10 03:37:20;;;;;;;9.30;6.53;;;18.20;99.90;;;18.30;78.48;99542.09;4845035;29;20053;-64
2021/05/10 03:39:48;;;;;;;9.75;6.55;;;18.10;99.90;;;18.23;78.38;99543.41;4828158;29;20524;-65
2021/05/10 03:42:16;;;;;;;8.90;6.70;;;18.00;99.90;;;18.18;78.04;99537.44;4844807;29;20065;-65
2021/05/10 03:44:43;;;;;;;9.07;6.63;;;18.00;99.90;;;18.16;78.55;99541.16;4844677;29;20058;-65
2021/05/10 03:47:10;;;;;;;7.03;6.32;;;17.90;99.90;;;18.16;78.22;99547.38;4844919;29;20046;-65
2021/05/10 03:49:38;;;;;;;8.48;6.00;;;17.90;99.90;;;18.13;77.67;99539.53;4844812;29;20054;-64
2021/05/10 03:52:05;;;;;;;6.80;6.00;;;17.90;99.90;;;18.21;77.86;99544.44;4844664;29;20122;-64
2021/05/10 03:54:32;;;;;;;9.00;6.53;;;17.90;99.90;;;18.17;77.83;99546.44;4844681;29;20042;-64
2021/05/10 03:57:01;;;;;;;7.47;6.43;;;18.00;99.90;;;18.17;77.51;99553.59;4844523;29;20058;-65
2021/05/10 03:59:29;;;;;;;9.75;5.43;;;18.00;99.90;;;18.20;77.58;99546.25;4844334;29;20089;-64
2021/05/10 04:01:58;;;;;;;7.15;5.97;;;18.00;99.90;;;18.17;77.74;99548.25;4828076;29;20504;-65
2021/05/10 04:04:30;;;;;;;7.63;5.88;;;18.00;99.90;;;18.12;77.77;99558.34;4844600;29;20057;-64
2021/05/10 04:09:52;;;;;;;7.22;5.93;;;18.00;99.90;;;18.23;77.40;99585.38;4844261;29;20054;-64
2021/05/10 04:15:23;;;;;;;9.02;6.13;;;18.00;99.90;;;18.18;77.34;99606.16;4844331;29;20092;-65
2021/05/10 04:17:51;;;;;;;7.20;6.50;;;18.00;99.90;;;18.02;77.69;99604.34;4844194;29;20050;-65
2021/05/10 04:20:18;;;;;;;10.23;6.40;;;18.00;99.90;;;18.25;78.03;99632.53;4844016;29;20446;-66
2021/05/10 04:22:46;;;;;;;12.00;6.32;;;18.00;99.90;;;18.14;78.82;99628.72;4844199;29;20058;-64
2021/05/10 04:25:14;;;;;;;7.70;6.28;;;18.00;99.90;;;18.13;79.30;99700.13;4844004;29;20050;-66
2021/05/10 04:27:42;;;;;;;7.82;6.45;;;17.90;99.90;;;18.06;80.45;99681.78;4843999;29;20046;-66
2021/05/10 04:30:12;;;;;;;10.15;7.70;;;17.80;99.90;;;17.91;82.18;99676.31;4826521;29;20436;-65
2021/05/10 04:32:39;;;;;;;10.13;7.50;;;17.70;99.90;;;17.79;83.72;99697.47;4827258;29;20102;-65
2021/05/10 04:35:08;;;;;;;9.52;8.23;;;17.50;99.90;;;17.47;85.70;99712.50;4844093;29;20125;-64
2021/05/10 04:37:36;;;;;;;11.50;8.43;;;17.30;99.90;;;17.35;87.38;99734.50;4843791;29;20057;-65
2021/05/10 04:40:05;;;;;;;12.80;9.40;;;17.10;99.90;;;17.28;88.39;99689.44;4843946;29;20058;-65
2021/05/10 04:42:32;;;;;;;7.78;6.97;;;17.00;99.90;;;17.11;88.31;99651.06;4843827;29;20098;-66
2021/05/10 04:45:01;;;;;;;5.95;5.40;;;16.80;99.90;;;17.06;87.64;99674.50;4843716;29;20136;-66
2021/05/10 04:47:36;;;;;;;5.90;5.30;;;16.80;99.90;;;17.14;87.36;99674.09;4843556;29;20091;-66
2021/05/10 04:50:07;;;;;;;6.57;4.88;;;16.80;99.90;;;17.18;86.45;99619.56;4843882;29;20402;-65
2021/05/10 04:52:34;;;;;;;10.10;5.10;;;16.80;99.90;;;17.04;86.56;99633.63;4843615;29;20110;-65
2021/05/10 04:55:02;;;;;;;6.32;4.13;;;16.70;99.90;;;17.08;86.36;99659.25;4843704;29;20289;-65
2021/05/10 04:57:29;;;;;;;7.85;4.13;;;16.70;99.90;;;16.92;86.24;99678.78;4843557;29;20053;-65
2021/05/10 04:59:57;;;;;;;4.85;4.22;;;16.60;99.90;;;16.97;86.27;99679.44;4843355;29;20126;-66
2021/05/10 05:02:26;;;;;;;6.97;4.18;;;16.60;99.90;;;16.84;86.46;99636.41;4843400;29;20393;-65
2021/05/10 05:04:54;;;;;;;6.07;4.20;;;16.60;99.90;;;17.02;85.97;99686.28;4843416;29;20137;-65
2021/05/10 05:07:21;;;;;;;5.38;4.00;;;16.60;99.90;;;16.93;85.90;99700.09;4843363;29;20121;-65
2021/05/10 05:09:49;;;;;;;6.43;4.35;;;16.60;99.90;;;16.95;85.80;99678.66;4843235;29;20068;-65
2021/05/10 05:12:16;;;;;;;5.35;4.55;;;16.60;99.90;;;16.87;85.97;99702.19;4843108;29;20133;-65
2021/05/10 05:14:44;;;;;;;8.32;4.43;;;16.50;99.90;;;16.84;86.15;99737.91;4843403;29;20050;-65
2021/05/10 05:17:11;;;;;;;9.68;4.85;;;16.50;99.90;;;16.77;86.90;99741.84;4843232;29;20081;-65
2021/05/10 05:19:40;;;;;;;10.07;5.35;;;16.40;99.90;;;16.67;86.85;99742.31;4843157;29;20050;-65
2021/05/10 05:22:08;;;;;;;5.72;4.90;;;16.50;99.90;;;16.77;87.03;99760.53;4842997;29;20489;-65
2021/05/10 05:24:35;;;;;;;7.35;5.00;;;16.50;99.90;;;16.72;87.24;99789.25;4842867;29;20453;-65
2021/05/10 05:27:04;;;;;;;11.10;5.45;;;16.40;99.90;;;16.71;87.53;99802.66;4842645;29;20536;-64
2021/05/10 05:29:31;;;;;;;8.25;5.22;;;16.40;99.90;;;16.75;87.70;99806.94;4842947;29;20057;-65
2021/05/10 05:31:59;;;;;;;9.85;5.35;;;16.40;99.90;;;16.75;88.02;99829.16;4842929;29;20384;-64
2021/05/10 05:34:27;;;;;;;8.27;5.85;;;16.50;99.90;;;16.54;88.47;99846.16;4843103;29;20057;-65
2021/05/10 05:36:55;;;;;;;9.60;4.80;;;16.40;99.90;;;16.37;89.85;99856.69;4842843;29;20053;-65
2021/05/10 05:39:23;;;;;;;7.55;4.78;;;16.10;99.90;;;16.31;90.94;99864.97;4842529;29;20057;-65
2021/05/10 05:41:51;;;;;;;9.38;5.20;;;16.00;99.90;;;16.06;90.98;99843.84;4826264;29;20057;-65
2021/05/10 05:44:18;;;;;;;5.38;4.55;;;15.90;99.90;;;16.03;90.92;99859.94;4842781;29;20061;-65
2021/05/10 05:46:49;;;;;;;5.63;5.13;;;15.80;99.90;;;16.11;91.33;99862.28;4842584;29;20045;-65
2021/05/10 05:49:17;;;;;;;4.25;3.78;;;15.80;99.90;;;16.09;91.04;99874.81;4842619;29;20048;-65
2021/05/10 05:51:46;;;;;;;5.63;4.85;;;15.80;99.90;;;16.17;91.00;99848.69;4826071;29;20544;-65
2021/05/10 05:54:15;;;;;;;6.10;4.50;;;15.80;99.90;;;16.17;90.93;99867.38;4826129;29;20052;-65
2021/05/10 05:56:42;;;;;;;5.10;4.60;;;15.80;99.90;;;16.26;90.76;99866.97;4842649;29;20077;-64
2021/05/10 05:59:10;;;;;;;6.10;4.57;;;15.90;99.90;;;16.33;90.50;99876.44;4826132;29;20504;-64
2021/05/10 06:01:37;;;;;;;6.25;4.97;;;16.00;99.90;;;16.50;90.13;99894.41;4842459;29;20054;-64
2021/05/10 06:04:05;;;;;;;6.00;5.22;;;16.10;99.90;;;16.62;89.99;99897.44;4842320;29;20081;-64
2021/05/10 06:06:32;;;;;;;8.80;5.70;;;16.30;99.90;;;16.61;89.92;99909.03;4825829;29;20141;-64
2021/05/10 06:09:04;;;;;;;8.40;5.82;;;16.40;99.90;;;16.62;90.29;99893.88;4842494;29;20057;-64
2021/05/10 06:11:32;;;;;;;6.25;5.47;;;16.30;99.90;;;16.67;90.47;99905.22;4842207;29;20045;-64
2021/05/10 06:14:00;;;;;;;6.55;4.68;;;16.40;99.90;;;16.63;89.81;99883.13;4842334;29;20126;-64
2021/05/10 06:16:28;;;;;;;6.82;5.85;;;16.40;99.90;;;16.62;89.59;99905.44;4825986;29;20081;-65
2021/05/10 06:18:56;;;;;;;7.70;5.43;;;16.40;99.90;;;16.63;89.40;99908.94;4842133;29;20060;-65
2021/05/10 06:21:24;;;;;;;6.15;5.55;;;16.40;99.90;;;16.63;89.82;99885.78;4842337;29;20053;-65
2021/05/10 06:23:52;;;;;;;9.95;6.22;;;16.50;99.90;;;16.80;89.17;99895.72;4842259;29;20045;-65
2021/05/10 06:26:20;;;;;;;11.45;7.35;;;16.50;99.90;;;16.80;88.69;99895.72;4842007;29;20496;-65
2021/05/10 06:28:48;;;;;;;7.97;7.05;;;16.60;99.90;;;16.91;88.95;99915.69;4842099;29;20121;-65
2021/05/10 06:31:15;;;;;;;7.75;6.72;;;16.70;99.90;;;16.79;89.31;99899.31;4841913;29;20051;-64
2021/05/10 06:33:44;;;;;;;7.20;6.13;;;16.60;99.90;;;16.73;89.24;99936.97;4841815;29;20042;-64
2021/05/10 06:36:12;;;;;;;8.05;6.88;;;16.50;99.90;;;16.77;89.03;99919.91;4825648;29;20072;-65
2021/05/10 06:38:39;;;;;;;6.78;6.00;;;16.50;99.90;;;16.73;89.25;99937.84;4841542;29;20057;-65
2021/05/10 06:41:06;;;;;;;8.10;5.95;;;16.50;99.90;;;16.71;89.11;99929.06;4841981;29;20065;-65
2021/05/10 06:43:34;;;;;;;7.47;6.22;;;16.50;99.90;;;16.73;89.17;99937.84;4841935;29;20129;-65
2021/05/10 06:46:02;;;;;;;7.70;6.53;;;16.50;99.90;;;16.64;88.95;99940.06;4841806;29;20126;-66
2021/05/10 06:48:33;;;;;;;9.55;6.65;;;16.50;99.90;;;16.59;89.20;99931.41;4842082;29;20101;-65
2021/05/10 06:51:02;;;;;;;7.18;6.03;;;16.40;99.90;;;16.56;89.11;99951.09;4842269;29;20050;-65
2021/05/10 06:53:29;;;;;;;7.38;6.40;;;16.30;99.90;;;16.61;89.43;99954.41;4825852;29;20516;-65
2021/05/10 06:55:57;;;;;;;6.57;5.75;;;16.40;99.90;;;16.55;90.38;99970.69;4828990;29;20058;-65
2021/05/10 06:58:24;;;;;;;5.78;5.28;;;16.30;99.90;;;16.33;89.44;99987.66;4845579;29;20085;-65
2021/05/10 07:00:56;;;;;;;5.40;4.45;;;16.10;99.90;;;15.99;87.70;99986.38;4845407;29;20423;-65
2021/05/10 07:03:24;;;;;;;8.43;4.40;;;15.80;99.90;;;15.94;87.20;100000.84;4845655;29;20054;-65
2021/05/10 07:05:53;;;;;;;5.53;4.68;;;15.70;99.90;;;15.82;87.12;100001.31;4845585;29;20046;-64
2021/05/10 07:08:21;;;;;;;5.40;4.43;;;15.60;99.90;;;15.75;87.49;100008.72;4845358;29;20056;-65
2021/05/10 07:10:50;;;;;;;8.38;4.13;;;15.50;99.90;;;15.74;87.65;100022.09;4845341;29;20050;-66
2021/05/10 07:13:20;;;;;;;5.15;4.43;;;15.50;99.90;;;15.43;87.61;99979.75;4845110;29;20257;-65
2021/05/10 07:15:48;;;;;;;9.38;5.18;;;15.40;99.90;;;15.62;88.05;100017.25;4845453;29;20049;-65
2021/05/10 07:18:16;;;;;;;10.82;5.25;;;15.40;99.90;;;15.65;88.23;100046.44;4845242;29;20110;-65
2021/05/10 07:20:47;;;;;;;6.85;5.00;;;15.40;99.90;;;15.68;88.12;100033.00;4845236;29;20045;-65
2021/05/10 07:23:16;;;;;;;9.02;5.25;;;15.40;99.90;;;15.59;88.61;100044.88;4845381;29;20054;-65
2021/05/10 07:25:46;;;;;;;7.57;5.07;;;15.40;99.90;;;15.63;88.77;100072.28;4845078;29;20087;-65
2021/05/10 07:28:17;;;;;;;6.57;5.45;;;15.30;99.90;;;15.66;88.61;100056.19;4845464;29;20054;-64
2021/05/10 07:30:45;;;;;;;10.93;5.95;;;15.40;99.90;;;15.65;88.44;100054.44;4845182;29;20054;-65
2021/05/10 07:33:13;;;;;;;8.38;5.88;;;15.40;99.90;;;15.79;88.62;100065.47;4844956;29;20077;-65
2021/05/10 07:35:41;;;;;;;6.97;5.78;;;15.50;99.90;;;15.70;88.84;100052.50;4844994;29;20062;-64
2021/05/10 07:38:10;;;;;;;8.85;6.13;;;15.50;99.90;;;16.03;88.87;100067.16;4844635;29;20129;-65
2021/05/10 07:40:38;;;;;;;9.80;5.20;;;15.70;99.90;;;16.21;88.45;100082.44;4844784;29;20114;-65
2021/05/10 07:43:06;;;;;;;6.10;5.50;;;15.80;99.90;;;16.13;87.50;100085.41;4844742;29;20097;-65
2021/05/10 07:45:34;;;;;;;9.80;6.28;;;15.90;99.90;;;16.18;87.19;100106.59;4844828;29;20408;-65
2021/05/10 07:48:01;;;;;;;7.55;5.50;;;15.90;99.90;;;16.28;87.17;100110.59;4844836;29;20042;-65
2021/05/10 07:50:30;;;;;;;8.77;6.07;;;16.00;99.90;;;16.19;86.66;100110.97;4844709;29;20058;-65
2021/05/10 07:52:58;;;;;;;6.50;4.72;;;15.90;99.90;;;16.31;86.04;100115.84;4844501;29;20054;-65
2021/05/10 07:55:27;;;;;;;6.72;5.20;;;16.00;99.90;;;16.24;86.01;100117.88;4844509;29;20099;-65
2021/05/10 07:57:55;;;;;;;6.93;5.35;;;16.00;99.90;;;16.22;85.50;100105.50;4844664;29;20049;-66
2021/05/10 08:00:27;;;;;;;6.90;5.28;;;16.10;99.90;;;16.34;85.33;100112.19;4844580;29;20049;-66
2021/05/10 08:02:58;;;;;;;8.27;5.20;;;16.10;99.90;;;16.18;84.81;100134.13;4844527;29;20052;-65
2021/05/10 08:05:26;;;;;;;6.85;4.88;;;16.00;99.90;;;16.03;84.35;100158.72;4844527;29;20050;-65
2021/05/10 08:07:54;;;;;;;9.77;5.07;;;15.80;99.90;;;15.29;83.82;100062.00;4844500;29;20085;-65
2021/05/10 08:10:22;;;;;;;8.77;4.63;;;15.70;99.90;;;15.97;83.34;100166.97;4844467;29;20106;-65
2021/05/10 08:12:51;;;;;;;8.65;4.97;;;15.70;99.90;;;16.19;84.23;100154.56;4844307;29;20373;-66
2021/05/10 08:15:18;;;;;;;10.10;5.50;;;15.80;99.90;;;16.51;83.78;100157.81;4844282;29;20057;-65
2021/05/10 08:17:46;;;;;;;7.55;4.30;;;16.10;99.90;;;16.63;82.11;100167.97;4827495;29;20046;-65
2021/05/10 08:20:34;;;;;;;7.82;4.63;;;16.30;99.90;;;16.61;80.14;100178.72;4844343;29;20102;-66
2021/05/10 08:23:01;;;;;;;5.70;4.10;;;16.40;99.90;;;16.63;79.41;100182.19;4844136;29;20046;-66
2021/05/10 08:25:28;;;;;;;8.88;4.50;;;16.40;99.90;;;16.42;76.63;100167.00;4844101;29;20050;-66
2021/05/10 08:27:57;;;;;;;10.48;4.35;;;16.20;99.90;;;16.33;75.59;100171.81;4844023;29;20048;-65
2021/05/10 08:30:24;;;;;;;9.73;4.90;;;16.10;99.90;;;16.51;76.32;100179.16;4843980;29;20058;-66
2021/05/10 08:32:54;;;;;;;8.00;3.67;;;16.20;99.90;;;16.43;74.88;100171.41;4843966;29;20050;-66
2021/05/10 08:35:22;;;;;;;7.18;4.13;;;16.10;99.90;;;16.41;75.11;100159.94;4843921;29;20054;-65
2021/05/10 08:37:59;;;;;;;7.75;4.55;;;16.20;99.90;;;16.60;75.44;100189.47;4843795;29;20504;-65
2021/05/10 08:40:27;;;;;;;8.40;4.32;;;16.20;99.90;;;16.48;73.85;100188.16;4843845;29;20110;-65
2021/05/10 08:42:58;;;;;;;9.88;4.63;;;16.20;99.90;;;16.45;74.54;100166.00;4826918;29;20257;-66
2021/05/10 08:45:26;;;;;;;;;;;16.20;99.90;;;16.66;74.15;100162.50;4844360;29;20058;-66
2021/05/10 08:47:59;;;;;;;8.45;4.40;;;16.50;99.90;;;16.88;73.21;100187.41;4843873;29;19996;-65
2021/05/10 08:50:27;;;;;;;12.02;5.30;;;16.60;99.90;;;16.86;72.39;100205.31;4827288;29;20058;-65
2021/05/10 08:52:54;;;;;;;12.13;4.90;;;16.60;99.90;;;16.79;72.44;100209.16;4843543;29;20086;-66
2021/05/10 08:55:22;;;;;;;8.38;4.43;;;16.50;99.90;;;17.08;72.91;100188.34;4843393;29;20428;-66
2021/05/10 08:57:50;;;;;;;10.10;4.63;;;16.70;99.90;;;17.32;72.22;100204.28;4843412;29;20400;-66
2021/05/10 09:00:22;;;;;;;12.85;5.00;;;16.90;99.90;;;17.33;70.96;100219.38;4843428;29;20065;-65
2021/05/10 09:03:06;;;;;;;11.07;5.45;;;17.00;99.90;;;17.48;70.64;100237.44;4843498;29;20420;-66
2021/05/10 09:05:46;;;;;;;10.13;3.95;;;17.20;99.90;;;17.67;70.83;100222.38;4843419;29;20050;-66
2021/05/10 09:08:14;;;;;;;7.10;4.50;;;17.30;99.90;;;17.50;68.87;100236.47;4843318;29;20054;-66
2021/05/10 09:10:42;;;;;;;10.98;4.20;;;17.30;99.90;;;17.28;68.16;100214.22;4843409;29;20144;-66
2021/05/10 09:13:09;;;;;;;11.32;4.72;;;17.20;99.90;;;17.29;68.79;100239.13;4843209;29;20046;-66
2021/05/10 09:15:38;;;;;;;8.70;4.20;;;17.00;99.90;;;17.19;68.78;100251.16;4826938;29;20470;-66
2021/05/10 09:18:07;;;;;;;9.82;5.07;;;16.90;99.90;;;17.08;70.11;100279.19;4842575;29;20412;-66
2021/05/10 09:20:37;;;;;;;11.23;4.88;;;16.80;99.90;;;17.13;69.81;100270.97;4843108;29;20066;-66
2021/05/10 09:23:08;;;;;;;12.65;4.28;;;16.80;99.90;;;16.88;69.99;100257.75;4843315;29;20140;-66
2021/05/10 09:25:38;;;;;;;10.32;4.45;;;16.60;99.90;;;16.71;70.92;100235.28;4843229;29;20053;-65
2021/05/10 09:28:15;;;;;;;16.83;4.65;;;16.60;99.90;;;16.85;71.10;100263.22;4826680;29;20053;-65
2021/05/10 09:30:45;;;;;;;13.82;4.90;;;16.50;99.90;;;16.97;71.10;100284.09;4842915;29;20519;-65
2021/05/10 09:33:22;;;;;;;16.45;5.10;;;16.60;99.90;;;16.83;70.09;100270.41;4842846;29;20050;-65
2021/05/10 09:35:50;;;;;;;12.45;5.15;;;16.60;99.90;;;16.95;70.74;100291.31;4842845;29;20050;-65
2021/05/10 09:38:20;;;;;;;14.27;4.60;;;16.60;99.90;;;16.18;70.08;100176.81;4842779;29;20053;-66
2021/05/10 09:40:52;;;;;;;17.88;5.88;;;16.60;99.90;;;16.84;70.10;100298.00;4842545;29;20057;-66
2021/05/10 09:43:23;;;;;;;15.02;5.20;;;16.50;99.90;;;16.72;69.13;100294.03;4842646;29;20057;-66
2021/05/10 09:45:59;;;;;;;17.95;5.40;;;16.50;99.90;;;16.74;69.33;100302.81;4842865;29;20045;-65
2021/05/10 09:48:29;;;;;;;12.68;5.20;;;16.50;99.90;;;16.71;68.96;100316.28;4826449;29;20058;-65
2021/05/10 09:51:00;;;;;;;13.20;5.10;;;16.40;99.90;;;16.80;69.27;100323.09;4842848;29;20430;-65
2021/05/10 09:53:39;;;;;;;11.15;4.75;;;16.50;99.90;;;16.83;69.01;100325.63;4842485;29;20211;-65
2021/05/10 09:56:09;;;;;;;12.38;4.75;;;16.50;99.90;;;16.97;69.07;100320.63;4842484;29;20054;-65
2021/05/10 09:58:40;;;;;;;16.20;5.85;;;16.60;99.90;;;16.91;68.64;100337.78;4842675;29;20437;-65
2021/05/10 10:01:09;;;;;;;15.73;5.20;;;16.60;99.90;;;16.93;68.33;100335.03;4842512;29;20056;-66
2021/05/10 10:03:39;;;;;;;14.50;5.07;;;16.60;99.90;;;16.91;68.33;100331.56;4842255;29;20580;-66
2021/05/10 10:06:11;;;;;;;10.32;5.22;;;16.60;99.90;;;16.99;68.75;100330.31;4842429;29;20170;-66
2021/05/10 10:08:39;;;;;;;;;;;16.60;99.90;;;17.08;67.97;100337.09;4842666;29;20061;-65
2021/05/10 10:11:09;;;;;;;12.15;5.15;;;16.70;99.90;;;17.11;67.85;100351.22;4842406;29;19958;-66
2021/05/10 10:13:37;;;;;;;12.23;4.85;;;16.80;99.90;;;17.17;67.25;100354.59;4842464;29;20187;-66
2021/05/10 10:16:07;;;;;;;12.48;4.88;;;16.80;99.90;;;17.12;67.05;100355.66;4842206;29;20076;-65
2021/05/10 10:18:39;;;;;;;15.27;6.00;;;16.80;99.90;;;17.33;67.18;100356.59;4842232;29;20049;-65
2021/05/10 10:21:10;;;;;;;11.88;5.28;;;16.90;99.90;;;17.38;66.90;100356.41;4842137;29;20512;-66
2021/05/10 10:23:38;;;;;;;12.70;4.90;;;17.10;99.90;;;17.49;66.36;100356.88;4842359;29;20057;-66
2021/05/10 10:26:16;;;;;;;18.02;5.18;;;17.20;99.90;;;17.70;65.67;100367.56;4842149;29;20125;-65
2021/05/10 10:28:47;;;;;;;11.93;5.10;;;17.30;99.90;;;17.79;66.37;100374.31;4841240;29;20053;-66